Time;durP1;ratioP1;P1;durP2;ratioP2;P2;SDS_P1;SDS_P2;PMS_P1;PMS_P2;Temp;Humidity;BMP_temperature;BMP_pressure;BME280_temperature;BME280_humidity;BME280_pressure;Samples;Min_cycle;Max_cycle;Signal;HPM_P1;HPM_P2
2023/03/06 00:00:35;;;;;;;;;;;1.60;99.90;;;;;;5053896;28;20379;-77
2023/03/06 00:03:01;;;;;;;;;;;1.60;99.90;;;;;;5038091;28;19928;-77
2023/03/06 00:05:27;;;;;;;;;;;1.60;99.90;;;;;;5032100;28;19920;-77
2023/03/06 00:07:52;;;;;;;;;;;1.60;99.90;;;;;;5046143;28;20056;-78
2023/03/06 00:10:22;;;;;;;;;;;1.60;99.90;;;;;;5063816;28;19920;-78
2023/03/06 00:12:50;;;;;;;;;;;1.60;99.90;;;;;;5045016;28;19920;-77
2023/03/06 00:15:15;;;;;;;;;;;1.60;99.90;;;;;;5063662;28;20346;-77
2023/03/06 00:17:41;;;;;;;;;;;1.60;99.90;;;;;;5063375;28;19920;-77
2023/03/06 00:20:07;;;;;;;;;;;1.60;99.90;;;;;;5064194;28;19921;-77
2023/03/06 00:22:33;;;;;;;;;;;1.60;99.90;;;;;;5046134;28;19921;-77
2023/03/06 00:24:58;;;;;;;;;;;1.60;99.90;;;;;;5065271;28;19924;-77
2023/03/06 00:27:25;;;;;;;;;;;1.60;99.90;;;;;;5068069;28;19928;-77
2023/03/06 00:29:54;;;;;;;;;;;1.60;99.90;;;;;;5067512;28;19924;-77
2023/03/06 00:32:20;;;;;;;;;;;1.60;99.90;;;;;;5049479;28;19975;-77
2023/03/06 00:34:47;;;;;;;;;;;1.50;99.90;;;;;;5064466;28;19963;-77
2023/03/06 00:37:13;;;;;;;;;;;1.50;99.90;;;;;;5043296;28;22009;-77
2023/03/06 00:39:38;;;;;;;;;;;1.50;99.90;;;;;;5063450;28;20017;-78
2023/03/06 00:42:04;;;;;;;;;;;1.50;99.90;;;;;;5078364;28;20344;-77
2023/03/06 00:44:30;;;;;;;;;;;1.50;99.90;;;;;;5069440;28;19924;-77
2023/03/06 00:46:55;;;;;;;;;;;1.60;99.90;;;;;;5059506;28;20070;-77
2023/03/06 00:49:21;;;;;;;;;;;1.60;99.90;;;;;;5033783;28;19967;-78
2023/03/06 00:51:46;;;;;;;;;;;1.60;99.90;;;;;;5042836;28;19942;-78
2023/03/06 00:54:12;;;;;;;;;;;1.70;99.90;;;;;;5066260;28;20295;-78
2023/03/06 00:56:37;;;;;;;;;;;1.70;99.90;;;;;;5063333;28;20001;-78
2023/03/06 00:59:03;;;;;;;;;;;1.70;99.90;;;;;;5070472;28;20271;-78
2023/03/06 01:01:28;;;;;;;;;;;1.70;99.90;;;;;;5065740;28;19928;-78
2023/03/06 01:03:54;;;;;;;;;;;1.60;99.90;;;;;;5076644;28;19991;-78
2023/03/06 01:06:19;;;;;;;;;;;1.70;99.90;;;;;;5095942;28;19923;-77
2023/03/06 01:08:45;;;;;;;;;;;1.70;99.90;;;;;;5086573;28;19925;-77
2023/03/06 01:11:10;;;;;;;;;;;1.60;99.90;;;;;;5075284;28;20016;-77
2023/03/06 01:13:36;;;;;;;;;;;1.60;99.90;;;;;;5068293;28;20011;-77
2023/03/06 01:16:09;;;;;;;;;;;1.70;99.90;;;;;;5067001;28;20007;-78
2023/03/06 01:18:35;;;;;;;;;;;1.70;99.90;;;;;;5046631;28;19921;-78
2023/03/06 01:21:01;;;;;;;;;;;1.70;99.90;;;;;;5068110;28;19924;-78
2023/03/06 01:23:26;;;;;;;;;;;1.70;99.90;;;;;;5066348;28;19970;-77
2023/03/06 01:25:52;;;;;;;;;;;1.70;99.90;;;;;;5049047;28;19924;-77
2023/03/06 01:28:17;;;;;;;;;;;1.70;99.90;;;;;;5067416;28;20268;-77
2023/03/06 01:30:43;;;;;;;;;;;1.70;99.90;;;;;;5068048;28;20305;-78
2023/03/06 01:33:08;;;;;;;;;;;1.80;99.90;;;;;;5070539;28;19928;-78
2023/03/06 01:35:36;;;;;;;;;;;1.80;99.90;;;;;;5045868;28;19921;-78
2023/03/06 01:38:01;;;;;;;;;;;1.80;99.90;;;;;;5074821;28;19943;-77
2023/03/06 01:40:29;;;;;;;;;;;1.80;99.90;;;;;;5067280;28;20011;-77
2023/03/06 01:42:55;;;;;;;;;;;1.80;99.90;;;;;;5078255;28;20278;-78
2023/03/06 01:45:23;;;;;;;;;;;1.80;99.90;;;;;;5056590;28;19920;-77
2023/03/06 01:47:49;;;;;;;;;;;1.80;99.90;;;;;;5086563;28;20062;-79
2023/03/06 01:50:14;;;;;;;;;;;1.80;99.90;;;;;;5073356;28;19959;-78
2023/03/06 01:52:44;;;;;;;;;;;1.80;99.90;;;;;;5074088;28;19924;-77
2023/03/06 01:55:13;;;;;;;;;;;1.90;99.90;;;;;;5074600;28;19979;-76
2023/03/06 01:57:40;;;;;;;;;;;1.90;99.90;;;;;;5074043;28;20382;-77
2023/03/06 02:00:13;;;;;;;;;;;1.90;99.90;;;;;;5073880;28;19920;-76
2023/03/06 02:02:40;;;;;;;;;;;1.90;99.90;;;;;;5074294;28;19927;-77
2023/03/06 02:05:06;;;;;;;;;;;2.00;99.90;;;;;;5079190;28;19924;-77
2023/03/06 02:07:33;;;;;;;;;;;2.00;99.90;;;;;;5049727;28;19990;-78
2023/03/06 02:09:58;;;;;;;;;;;2.00;99.90;;;;;;5064174;28;20291;-78
2023/03/06 02:12:24;;;;;;;;;;;2.00;99.90;;;;;;5080739;28;19920;-77
2023/03/06 02:14:50;;;;;;;;;;;2.10;99.90;;;;;;5094360;28;19924;-77
2023/03/06 02:17:17;;;;;;;;;;;2.10;99.90;;;;;;5067448;28;20448;-78
2023/03/06 02:19:42;;;;;;;;;;;2.10;99.90;;;;;;5047797;28;19921;-78
2023/03/06 02:22:08;;;;;;;;;;;2.10;99.90;;;;;;5066586;28;19930;-77
2023/03/06 02:24:38;;;;;;;;;;;2.10;99.90;;;;;;5066148;28;19924;-77
2023/03/06 02:27:05;;;;;;;;;;;2.10;99.90;;;;;;5047328;28;19932;-78
2023/03/06 02:29:31;;;;;;;;;;;2.10;99.90;;;;;;5066725;28;19974;-77
2023/03/06 02:31:57;;;;;;;;;;;2.20;99.90;;;;;;5069416;28;19924;-77
2023/03/06 02:34:22;;;;;;;;;;;2.10;99.90;;;;;;5060661;28;19967;-77
2023/03/06 02:36:49;;;;;;;;;;;2.10;99.90;;;;;;5057463;28;19921;-78
2023/03/06 02:39:18;;;;;;;;;;;2.20;99.90;;;;;;5054525;28;19920;-77
2023/03/06 02:41:44;;;;;;;;;;;2.20;99.90;;;;;;5063987;28;20291;-76
2023/03/06 02:44:09;;;;;;;;;;;2.20;99.90;;;;;;5071254;28;19927;-77
2023/03/06 02:46:35;;;;;;;;;;;2.20;99.90;;;;;;5071007;28;19987;-76
2023/03/06 02:49:01;;;;;;;;;;;2.20;99.90;;;;;;5045729;28;20015;-77
2023/03/06 02:51:26;;;;;;;;;;;2.20;99.90;;;;;;5065805;28;20352;-77
2023/03/06 02:53:52;;;;;;;;;;;2.20;99.90;;;;;;5066011;28;19936;-77
2023/03/06 02:56:18;;;;;;;;;;;2.20;99.90;;;;;;5063835;28;19920;-78
2023/03/06 02:58:44;;;;;;;;;;;2.20;99.90;;;;;;5063756;28;19994;-77
2023/03/06 03:01:09;;;;;;;;;;;2.20;99.90;;;;;;5046537;28;19920;-77
2023/03/06 03:03:35;;;;;;;;;;;2.30;99.90;;;;;;5045600;28;19963;-77
2023/03/06 03:06:02;;;;;;;;;;;2.30;99.90;;;;;;5028985;28;19921;-77
2023/03/06 03:08:28;;;;;;;;;;;2.30;99.90;;;;;;5065285;28;20073;-78
2023/03/06 03:10:54;;;;;;;;;;;2.30;99.90;;;;;;5065436;28;20391;-77
2023/03/06 03:13:20;;;;;;;;;;;2.30;99.90;;;;;;5068060;28;19927;-79
2023/03/06 03:15:55;;;;;;;;;;;2.30;99.90;;;;;;5067128;28;19920;-79
2023/03/06 03:18:21;;;;;;;;;;;2.30;99.90;;;;;;5060329;28;19986;-76
2023/03/06 03:20:46;;;;;;;;;;;2.30;99.90;;;;;;5052848;28;19964;-76
2023/03/06 03:23:12;;;;;;;;;;;2.30;99.90;;;;;;5061847;28;19920;-76
2023/03/06 03:25:37;;;;;;;;;;;2.30;99.90;;;;;;5075953;28;19921;-76
2023/03/06 03:28:03;;;;;;;;;;;2.30;99.90;;;;;;5073428;28;20373;-77
2023/03/06 03:30:28;;;;;;;;;;;2.30;99.90;;;;;;5072463;28;20377;-77
2023/03/06 03:32:54;;;;;;;;;;;2.30;99.90;;;;;;5072297;28;20305;-76
2023/03/06 03:35:20;;;;;;;;;;;2.30;99.90;;;;;;5063358;28;19953;-76
2023/03/06 03:37:45;;;;;;;;;;;2.30;99.90;;;;;;5062568;28;20363;-77
2023/03/06 03:40:11;;;;;;;;;;;2.30;99.90;;;;;;5063420;28;20359;-76
2023/03/06 03:42:36;;;;;;;;;;;2.40;99.90;;;;;;5060662;28;19935;-76
2023/03/06 03:45:02;;;;;;;;;;;2.40;99.90;;;;;;5066053;28;19970;-76
2023/03/06 03:47:27;;;;;;;;;;;2.40;99.90;;;;;;5068384;28;19924;-76
2023/03/06 03:49:53;;;;;;;;;;;2.40;99.90;;;;;;5058602;28;20210;-77
2023/03/06 03:52:18;;;;;;;;;;;2.40;99.90;;;;;;5065969;28;19927;-79
2023/03/06 03:54:44;;;;;;;;;;;2.40;99.90;;;;;;5061131;28;20000;-78
2023/03/06 03:57:09;;;;;;;;;;;2.40;99.90;;;;;;5060157;28;19928;-78
2023/03/06 03:59:35;;;;;;;;;;;2.40;99.90;;;;;;5059572;28;19968;-78
2023/03/06 04:02:03;;;;;;;;;;;2.40;99.90;;;;;;5061938;28;19960;-77
2023/03/06 04:04:29;;;;;;;;;;;2.40;99.90;;;;;;5064454;28;19943;-78
2023/03/06 04:06:54;;;;;;;;;;;2.40;99.90;;;;;;5061241;28;19920;-77
2023/03/06 04:09:20;;;;;;;;;;;2.40;99.90;;;;;;5060872;28;19964;-77
2023/03/06 04:11:45;;;;;;;;;;;2.40;99.90;;;;;;5042229;28;19931;-78
2023/03/06 04:14:11;;;;;;;;;;;2.40;99.90;;;;;;5062095;28;21123;-78
2023/03/06 04:16:36;;;;;;;;;;;2.40;99.90;;;;;;5059904;28;19921;-78
2023/03/06 04:19:05;;;;;;;;;;;2.40;99.90;;;;;;5040985;28;19939;-78
2023/03/06 04:21:31;;;;;;;;;;;2.40;99.90;;;;;;5059168;28;19932;-78
2023/03/06 04:23:57;;;;;;;;;;;2.40;99.90;;;;;;5058254;28;20341;-78
2023/03/06 04:26:22;;;;;;;;;;;2.40;99.90;;;;;;5042448;28;19990;-78
2023/03/06 04:28:48;;;;;;;;;;;2.40;99.90;;;;;;5041655;28;20023;-78
2023/03/06 04:31:13;;;;;;;;;;;2.40;99.90;;;;;;5045409;28;20648;-78
2023/03/06 04:33:39;;;;;;;;;;;2.40;99.90;;;;;;5046779;28;19975;-79
2023/03/06 04:36:05;;;;;;;;;;;2.40;99.90;;;;;;5064196;28;19974;-78
2023/03/06 04:38:30;;;;;;;;;;;2.50;99.90;;;;;;5048667;28;19947;-78
2023/03/06 04:40:56;;;;;;;;;;;2.50;99.90;;;;;;5067453;28;20007;-77
2023/03/06 04:43:21;;;;;;;;;;;2.50;99.90;;;;;;5045951;28;19920;-78
2023/03/06 04:45:47;;;;;;;;;;;2.50;99.90;;;;;;5065309;28;20383;-79
2023/03/06 04:48:16;;;;;;;;;;;2.50;99.90;;;;;;5066491;28;19931;-78
2023/03/06 04:50:42;;;;;;;;;;;2.50;99.90;;;;;;5064379;28;19920;-78
2023/03/06 04:53:07;;;;;;;;;;;2.50;99.90;;;;;;5043743;28;20460;-78
2023/03/06 04:55:33;;;;;;;;;;;2.60;99.90;;;;;;5064672;28;20412;-77
2023/03/06 04:57:58;;;;;;;;;;;2.50;99.90;;;;;;5061385;28;20461;-77
2023/03/06 05:00:29;;;;;;;;;;;2.50;99.90;;;;;;5050131;28;19920;-78
2023/03/06 05:02:55;;;;;;;;;;;2.60;99.90;;;;;;5069237;28;20030;-78
2023/03/06 05:05:20;;;;;;;;;;;2.60;99.90;;;;;;5056425;28;19971;-78
2023/03/06 05:07:46;;;;;;;;;;;2.60;99.90;;;;;;5075011;28;19920;-78
2023/03/06 05:10:12;;;;;;;;;;;2.60;99.90;;;;;;5090516;28;19928;-78
2023/03/06 05:12:38;;;;;;;;;;;2.60;99.90;;;;;;5056267;28;19967;-78
2023/03/06 05:15:04;;;;;;;;;;;2.60;99.90;;;;;;5074086;28;19963;-78
2023/03/06 05:17:29;;;;;;;;;;;2.60;99.90;;;;;;5057122;28;19998;-79
2023/03/06 05:19:55;;;;;;;;;;;2.60;99.90;;;;;;5075558;28;19927;-78
2023/03/06 05:22:20;;;;;;;;;;;2.60;99.90;;;;;;5074697;28;19973;-77
2023/03/06 05:24:46;;;;;;;;;;;2.60;99.90;;;;;;5067360;28;19965;-77
2023/03/06 05:27:11;;;;;;;;;;;2.70;99.90;;;;;;5060699;28;19924;-77
2023/03/06 05:29:37;;;;;;;;;;;2.60;99.90;;;;;;5071124;28;20014;-77
2023/03/06 05:32:03;;;;;;;;;;;2.60;99.90;;;;;;5068389;28;20339;-78
2023/03/06 05:34:28;;;;;;;;;;;2.60;99.90;;;;;;5066506;28;19966;-78
2023/03/06 05:36:54;;;;;;;;;;;2.60;99.90;;;;;;5065099;28;19924;-78
2023/03/06 05:39:19;;;;;;;;;;;2.60;99.90;;;;;;5047694;28;19931;-78
2023/03/06 05:41:45;;;;;;;;;;;2.50;99.90;;;;;;5065635;28;20339;-78
2023/03/06 05:44:10;;;;;;;;;;;2.40;99.90;;;;;;5064973;28;19920;-78
2023/03/06 05:46:36;;;;;;;;;;;2.20;99.90;;;;;;5065412;28;20019;-78
2023/03/06 05:49:02;;;;;;;;;;;2.10;99.90;;;;;;5045661;28;19927;-77
2023/03/06 05:51:28;;;;;;;;;;;2.00;99.90;;;;;;5030815;28;20295;-78
2023/03/06 05:53:53;;;;;;;;;;;2.00;99.90;;;;;;5045627;28;19928;-78
2023/03/06 05:56:20;;;;;;;;;;;1.90;99.90;;;;;;5065536;28;19928;-78
2023/03/06 05:58:46;;;;;;;;;;;1.80;99.90;;;;;;5044077;28;20367;-78
2023/03/06 06:01:13;;;;;;;;;;;1.70;99.90;;;;;;5047243;28;19982;-77
2023/03/06 06:03:39;;;;;;;;;;;1.60;99.90;;;;;;5065009;28;22206;-77
2023/03/06 06:06:05;;;;;;;;;;;1.60;99.90;;;;;;5062568;28;20022;-77
2023/03/06 06:08:31;;;;;;;;;;;1.60;99.90;;;;;;5063159;28;19925;-78
2023/03/06 06:10:57;;;;;;;;;;;1.60;99.90;;;;;;5041411;28;20379;-77
2023/03/06 06:13:22;;;;;;;;;;;1.60;99.90;;;;;;5061538;28;19998;-77
2023/03/06 06:15:48;;;;;;;;;;;1.60;99.90;;;;;;5063026;28;20362;-78
2023/03/06 06:18:13;;;;;;;;;;;1.60;99.90;;;;;;5065034;28;19930;-78
2023/03/06 06:20:39;;;;;;;;;;;1.50;99.90;;;;;;5063974;28;19924;-78
2023/03/06 06:23:04;;;;;;;;;;;1.60;99.90;;;;;;5065051;28;20023;-79
2023/03/06 06:25:31;;;;;;;;;;;1.60;99.90;;;;;;5047938;28;19925;-79
2023/03/06 06:27:56;;;;;;;;;;;1.60;99.90;;;;;;5066213;28;20016;-79
2023/03/06 06:30:22;;;;;;;;;;;1.50;99.90;;;;;;5065083;28;20272;-79
2023/03/06 06:32:48;;;;;;;;;;;1.50;99.90;;;;;;5063975;28;20355;-78
2023/03/06 06:35:13;;;;;;;;;;;1.40;99.90;;;;;;5067365;28;19982;-79
2023/03/06 06:37:39;;;;;;;;;;;1.40;99.90;;;;;;5071726;28;19997;-79
2023/03/06 06:40:04;;;;;;;;;;;1.40;99.90;;;;;;5052372;28;19984;-78
2023/03/06 06:42:30;;;;;;;;;;;1.40;99.90;;;;;;5065824;28;20377;-78
2023/03/06 06:44:56;;;;;;;;;;;1.30;99.90;;;;;;5065712;28;19932;-78
2023/03/06 06:47:21;;;;;;;;;;;1.40;99.90;;;;;;5066190;28;20012;-78
2023/03/06 06:49:51;;;;;;;;;;;1.40;99.90;;;;;;5068607;28;20285;-79
2023/03/06 06:52:17;;;;;;;;;;;1.40;99.90;;;;;;5062182;28;19935;-78
2023/03/06 06:54:43;;;;;;;;;;;1.40;99.90;;;;;;5045538;28;20410;-78
2023/03/06 06:57:09;;;;;;;;;;;1.40;99.90;;;;;;5064431;28;19930;-78
2023/03/06 06:59:35;;;;;;;;;;;1.50;99.90;;;;;;5065517;28;19964;-78
2023/03/06 07:02:00;;;;;;;;;;;1.50;99.90;;;;;;5064818;28;19971;-78
2023/03/06 07:04:26;;;;;;;;;;;1.60;99.90;;;;;;5050515;28;20461;-79
2023/03/06 07:06:53;;;;;;;;;;;1.90;99.90;;;;;;5073527;28;19973;-78
2023/03/06 07:09:19;;;;;;;;;;;2.30;99.90;;;;;;5071488;28;19931;-77
2023/03/06 07:11:45;;;;;;;;;;;2.40;99.90;;;;;;5068479;28;19920;-78
2023/03/06 07:14:10;;;;;;;;;;;2.50;99.90;;;;;;5074795;28;20018;-77
2023/03/06 07:16:36;;;;;;;;;;;2.50;99.90;;;;;;5080553;28;19928;-77
2023/03/06 07:19:01;;;;;;;;;;;2.40;99.90;;;;;;5080203;28;19920;-78
2023/03/06 07:21:27;;;;;;;;;;;2.40;99.90;;;;;;5078684;28;19928;-78
2023/03/06 07:23:53;;;;;;;;;;;2.30;99.90;;;;;;5076132;28;20023;-79
2023/03/06 07:26:18;;;;;;;;;;;2.20;99.90;;;;;;5042812;28;20006;-78
2023/03/06 07:28:44;;;;;;;;;;;2.20;99.90;;;;;;5084977;28;20111;-78
2023/03/06 07:31:10;;;;;;;;;;;2.20;99.90;;;;;;5055309;28;19920;-78
2023/03/06 07:33:36;;;;;;;;;;;2.20;99.90;;;;;;5070042;28;19920;-78
2023/03/06 07:36:02;;;;;;;;;;;2.20;99.90;;;;;;5064189;28;19949;-78
2023/03/06 07:38:27;;;;;;;;;;;2.30;99.90;;;;;;5064592;28;19950;-78
2023/03/06 07:40:53;;;;;;;;;;;2.50;99.90;;;;;;5069484;28;20387;-78
2023/03/06 07:43:18;;;;;;;;;;;2.70;99.90;;;;;;5032035;28;20066;-79
2023/03/06 07:45:45;;;;;;;;;;;2.80;99.90;;;;;;5066364;28;20315;-79
2023/03/06 07:48:11;;;;;;;;;;;2.80;99.90;;;;;;5063926;28;19935;-78
2023/03/06 07:50:37;;;;;;;;;;;3.00;99.90;;;;;;5065353;28;19925;-78
2023/03/06 07:53:03;;;;;;;;;;;3.10;99.90;;;;;;5062574;28;19932;-79
2023/03/06 07:55:28;;;;;;;;;;;3.10;99.90;;;;;;5061767;28;19921;-77
2023/03/06 07:57:54;;;;;;;;;;;3.10;99.90;;;;;;5059517;28;20386;-76
2023/03/06 08:00:20;;;;;;;;;;;3.30;99.90;;;;;;5060268;28;19932;-75
2023/03/06 08:02:45;;;;;;;;;;;3.50;99.90;;;;;;5061716;28;19924;-76
2023/03/06 08:05:12;;;;;;;;;;;3.60;99.90;;;;;;5060843;28;19926;-77
2023/03/06 08:07:38;;;;;;;;;;;3.80;99.90;;;;;;5065123;28;19920;-78
2023/03/06 08:10:04;;;;;;;;;;;3.80;99.90;;;;;;5063873;28;19974;-76
2023/03/06 08:12:29;;;;;;;;;;;3.90;99.90;;;;;;5045076;28;19978;-77
2023/03/06 08:14:55;;;;;;;;;;;3.90;99.90;;;;;;5068556;28;20598;-78
2023/03/06 08:17:21;;;;;;;;;;;4.00;99.90;;;;;;5073421;28;19986;-80
2023/03/06 08:19:46;;;;;;;;;;;4.10;99.90;;;;;;5078871;28;19920;-78
2023/03/06 08:22:12;;;;;;;;;;;4.20;99.90;;;;;;5076449;28;20344;-79
2023/03/06 08:24:41;;;;;;;;;;;4.30;99.90;;;;;;5076708;28;19928;-78
2023/03/06 08:27:07;;;;;;;;;;;4.20;99.90;;;;;;5060648;28;19920;-79
2023/03/06 08:29:32;;;;;;;;;;;4.30;99.90;;;;;;5058656;28;19920;-79
2023/03/06 08:31:58;;;;;;;;;;;4.30;99.90;;;;;;5058031;28;20012;-79
2023/03/06 08:34:24;;;;;;;;;;;4.40;99.90;;;;;;5057880;28;20358;-80
2023/03/06 08:36:50;;;;;;;;;;;4.40;99.90;;;;;;5051885;28;20386;-79
2023/03/06 08:39:16;;;;;;;;;;;4.50;99.90;;;;;;5075184;28;19920;-79
2023/03/06 08:41:42;;;;;;;;;;;4.40;99.90;;;;;;5074421;28;19927;-79
2023/03/06 08:44:07;;;;;;;;;;;4.40;99.90;;;;;;5078598;28;19959;-79
2023/03/06 08:46:33;;;;;;;;;;;4.40;99.90;;;;;;5060159;28;19935;-79
2023/03/06 08:48:58;;;;;;;;;;;4.50;99.90;;;;;;5078082;28;19942;-79
2023/03/06 08:51:25;;;;;;;;;;;4.60;99.90;;;;;;5063744;28;19921;-79
2023/03/06 08:53:50;;;;;;;;;;;4.50;99.90;;;;;;5045966;28;19924;-78
2023/03/06 08:56:17;;;;;;;;;;;4.60;99.90;;;;;;5082278;28;19931;-80
2023/03/06 08:58:42;;;;;;;;;;;4.50;99.90;;;;;;5077513;28;20325;-81
2023/03/06 09:01:15;;;;;;;;;;;4.50;99.90;;;;;;5080863;28;19924;-79
2023/03/06 09:03:41;;;;;;;;;;;4.50;99.90;;;;;;5080351;28;20047;-78
2023/03/06 09:06:06;;;;;;;;;;;4.60;99.90;;;;;;5070552;28;19951;-79
2023/03/06 09:08:32;;;;;;;;;;;4.60;99.90;;;;;;5071622;28;20414;-80
2023/03/06 09:10:57;;;;;;;;;;;4.70;99.90;;;;;;5072113;28;20069;-80
2023/03/06 09:13:23;;;;;;;;;;;4.80;99.90;;;;;;5042245;28;19920;-80
2023/03/06 09:15:48;;;;;;;;;;;4.80;99.90;;;;;;5059164;28;19920;-80
2023/03/06 09:18:14;;;;;;;;;;;4.90;99.90;;;;;;5071411;28;20031;-80
2023/03/06 09:20:39;;;;;;;;;;;5.10;99.90;;;;;;5062910;28;19996;-80
2023/03/06 09:23:05;;;;;;;;;;;5.10;99.90;;;;;;5074403;28;19947;-80
2023/03/06 09:25:30;;;;;;;;;;;5.20;99.90;;;;;;5059915;28;19924;-80
2023/03/06 09:27:56;;;;;;;;;;;5.40;99.90;;;;;;5073726;28;19947;-80
2023/03/06 09:30:21;;;;;;;;;;;5.40;99.90;;;;;;5073491;28;20287;-80
2023/03/06 09:35:07;;;;;;;0.60;0.60;;;5.40;99.90;;;;;;5017078;27;20839;-56
2023/03/06 09:37:33;;;;;;;1.65;0.70;;;5.40;99.90;;;;;;5009439;28;20142;-55
2023/03/06 09:39:58;;;;;;;2.28;0.63;;;5.30;99.90;;;;;;5012827;28;20088;-56
2023/03/06 09:42:25;;;;;;;4.10;0.90;;;5.40;99.90;;;;;;5016591;28;20042;-54
2023/03/06 09:45:02;;;;;;;2.63;0.80;;;5.40;99.90;;;;;;5015937;28;20502;-56
2023/03/06 09:47:34;;;;;;;2.00;0.57;;;5.50;99.90;;;;;;5006481;28;20042;-54
2023/03/06 09:50:10;;;;;;;2.60;0.73;;;5.40;99.90;;;;;;5013261;28;20050;-51
2023/03/06 09:52:36;;;;;;;1.88;0.70;;;5.30;99.90;;;;;;5005880;28;20060;-53
2023/03/06 09:55:09;;;;;;;2.15;0.75;;;5.50;99.90;;;;;;5006883;28;20509;-56
2023/03/06 09:57:40;;;;;;;2.03;0.68;;;5.70;99.90;;;;;;5006136;28;20395;-55
2023/03/06 10:00:12;;;;;;;2.58;0.60;;;5.50;99.90;;;;;;5002811;28;20074;-52
2023/03/06 10:02:43;;;;;;;1.85;0.63;;;5.60;99.90;;;;;;5011351;28;20038;-56
2023/03/06 10:05:25;;;;;;;3.13;0.77;;;5.70;99.90;;;;;;5007905;28;20065;-55
2023/03/06 10:08:22;;;;;;;2.53;0.77;;;5.70;99.90;;;;;;5004929;28;20046;-54
2023/03/06 10:10:57;;;;;;;2.47;0.70;;;6.10;99.90;;;;;;5010258;28;20053;-56
2023/03/06 10:13:37;;;;;;;1.63;0.70;;;6.00;99.90;;;;;;5010207;28;20073;-57
2023/03/06 10:16:14;;;;;;;2.40;0.80;;;6.10;99.90;;;;;;5000077;28;20469;-57
2023/03/06 10:18:40;;;;;;;2.70;0.60;;;6.10;99.90;;;;;;5001348;28;20049;-54
2023/03/06 10:21:37;;;;;;;2.28;0.60;;;6.30;99.90;;;;;;5006546;28;22155;-57
2023/03/06 10:24:25;;;;;;;3.08;0.77;;;6.20;99.90;;;;;;5009454;28;20072;-56
2023/03/06 10:27:09;;;;;;;3.40;0.65;;;6.40;99.90;;;;;;5007134;28;20444;-55
2023/03/06 10:29:46;;;;;;;2.55;0.60;;;6.60;99.90;;;;;;5011376;28;20390;-56
2023/03/06 10:32:29;;;;;;;2.83;0.80;;;6.50;99.90;;;;;;4999710;28;20703;-55
2023/03/06 10:34:59;;;;;;;1.95;0.55;;;6.70;99.90;;;;;;4993393;28;20087;-56
2023/03/06 10:37:27;;;;;;;2.53;0.60;;;6.80;99.90;;;;;;5004276;28;20042;-56
2023/03/06 10:40:02;;;;;;;1.85;0.60;;;7.10;99.90;;;;;;4999014;28;20644;-55
2023/03/06 10:42:28;;;;;;;1.63;0.70;;;7.10;99.90;;;;;;4993655;28;20072;-57
2023/03/06 10:45:23;;;;;;;1.88;0.82;;;7.40;99.90;;;;;;5002490;28;20506;-57
2023/03/06 10:47:49;;;;;;;1.60;0.70;;;7.40;99.90;;;;;;4983167;28;20057;-55
2023/03/06 10:50:26;;;;;;;2.92;0.75;;;7.30;99.90;;;;;;4994087;28;20043;-57
2023/03/06 10:53:04;;;;;;;1.53;0.83;;;7.30;99.90;;;;;;4990663;28;20125;-53
2023/03/06 10:55:33;;;;;;;4.82;1.00;;;7.30;99.90;;;;;;4994039;28;20892;-56
2023/03/06 10:58:18;;;;;;;3.10;0.90;;;7.20;99.90;;;;;;4993106;28;20038;-56
2023/03/06 11:00:44;;;;;;;2.72;0.80;;;7.20;99.90;;;;;;4995267;28;20045;-55
2023/03/06 11:03:20;;;;;;;2.40;0.93;;;7.30;99.90;;;;;;4985874;28;20140;-53
2023/03/06 11:06:05;;;;;;;3.58;0.88;;;7.70;99.90;;;;;;4994138;28;20046;-57
2023/03/06 11:08:31;;;;;;;3.67;0.82;;;7.60;99.90;;;;;;4983520;28;22049;-58
2023/03/06 11:11:23;;;;;;;2.25;0.80;;;7.30;99.90;;;;;;4987954;28;20045;-57
2023/03/06 11:13:57;;;;;;;2.78;0.80;;;7.50;99.90;;;;;;4987887;28;20039;-56
2023/03/06 11:16:29;;;;;;;2.88;0.70;;;7.60;99.90;;;;;;4993917;28;20038;-55
2023/03/06 11:18:57;;;;;;;4.05;0.70;;;7.80;99.90;;;;;;4987726;28;20125;-57
2023/03/06 11:21:34;;;;;;;1.83;0.70;;;8.00;99.90;;;;;;4991778;28;20413;-58
2023/03/06 11:24:04;;;;;;;2.00;0.60;;;8.30;99.90;;;;;;4995761;28;20179;-56
2023/03/06 11:26:37;;;;;;;2.03;0.70;;;8.60;99.90;;;;;;4989975;28;20093;-55
2023/03/06 11:29:41;;;;;;;2.40;0.80;;;8.80;99.90;;;;;;4985387;28;20051;-57
2023/03/06 11:32:13;;;;;;;3.10;0.70;;;9.10;99.90;;;;;;4988314;28;20039;-56
2023/03/06 11:34:51;;;;;;;2.10;0.60;;;9.20;99.90;;;;;;4993179;28;20153;-57
2023/03/06 11:37:23;;;;;;;2.05;0.63;;;9.40;99.90;;;;;;4987198;28;20038;-57
2023/03/06 11:40:05;;;;;;;0.98;0.60;;;9.50;99.90;;;;;;5000926;28;20786;-58
2023/03/06 11:42:40;;;;;;;2.35;0.80;;;9.70;99.90;;;;;;4993687;28;20768;-58
2023/03/06 11:45:36;;;;;;;2.25;0.70;;;9.60;99.90;;;;;;4996761;28;20044;-56
2023/03/06 11:48:13;;;;;;;1.60;0.52;;;9.50;99.90;;;;;;4991614;28;20076;-55
2023/03/06 11:50:43;;;;;;;1.77;0.60;;;9.60;99.90;;;;;;4995423;28;20050;-57
2023/03/06 11:53:17;;;;;;;0.73;0.60;;;9.70;99.90;;;;;;4990794;28;20053;-55
2023/03/06 11:56:08;;;;;;;2.80;0.63;;;9.50;99.90;;;;;;4991253;28;20507;-55
2023/03/06 11:58:34;;;;;;;2.97;0.80;;;9.10;99.90;;;;;;4986789;28;20597;-53
2023/03/06 12:01:11;;;;;;;4.18;0.90;;;9.00;99.90;;;;;;4998476;28;20411;-55
2023/03/06 12:03:55;;;;;;;2.30;0.98;;;8.80;99.90;;;;;;4995843;28;20042;-57
2023/03/06 12:06:53;;;;;;;4.10;0.70;;;8.80;99.90;;;;;;4991797;28;20122;-57
2023/03/06 12:09:40;;;;;;;2.78;0.68;;;8.80;99.90;;;;;;4992676;28;20514;-54
2023/03/06 12:12:20;;;;;;;0.65;0.50;;;9.00;99.90;;;;;;4992936;28;20055;-54
2023/03/06 12:15:17;;;;;;;2.72;0.80;;;9.30;99.90;;;;;;4991769;28;20038;-57
2023/03/06 12:18:20;;;;;;;2.95;0.65;;;9.30;99.90;;;;;;4992798;28;20102;-56
2023/03/06 12:21:07;;;;;;;1.88;0.63;;;9.40;99.90;;;;;;4987000;28;20038;-57
2023/03/06 12:23:44;;;;;;;1.65;0.50;;;9.70;99.90;;;;;;4994820;28;20416;-55
2023/03/06 12:26:24;;;;;;;3.03;0.80;;;9.90;99.90;;;;;;4991625;28;20069;-54
2023/03/06 12:29:14;;;;;;;2.53;0.88;;;9.80;99.90;;;;;;4999126;28;20050;-53
2023/03/06 12:32:13;;;;;;;3.20;0.60;;;9.70;99.90;;;;;;4990256;28;20527;-57
2023/03/06 12:34:58;;;;;;;1.63;0.70;;;9.20;99.90;;;;;;4987160;28;20066;-56
2023/03/06 12:37:41;;;;;;;3.13;0.77;;;9.10;99.90;;;;;;4984197;28;20125;-58
2023/03/06 12:40:33;;;;;;;3.28;0.75;;;9.00;99.90;;;;;;5003163;28;20038;-53
2023/03/06 12:43:35;;;;;;;2.63;0.68;;;8.80;99.90;;;;;;4998143;28;20072;-57
2023/03/06 12:46:23;;;;;;;2.15;0.70;;;8.70;99.90;;;;;;4995637;28;20046;-56
2023/03/06 12:49:15;;;;;;;4.28;0.60;;;8.50;99.90;;;;;;4987822;28;20561;-56
2023/03/06 12:51:43;;;;;;;2.72;0.85;;;8.40;99.90;;;;;;5000232;28;20107;-57
2023/03/06 12:54:11;;;;;;;2.10;0.50;;;8.40;99.90;;;;;;4989166;28;20041;-57
2023/03/06 12:56:39;;;;;;;4.35;0.77;;;8.20;99.90;;;;;;4991776;28;20034;-56
2023/03/06 12:59:05;;;;;;;4.35;1.20;;;8.20;99.90;;;;;;4988850;28;20057;-58
2023/03/06 13:02:02;;;;;;;2.05;0.60;;;8.20;99.90;;;;;;4993924;28;20037;-54
2023/03/06 13:04:44;;;;;;;1.67;0.73;;;8.20;99.90;;;;;;4980526;28;20054;-56
2023/03/06 13:07:35;;;;;;;1.73;0.73;;;8.30;99.90;;;;;;4990167;28;20125;-56
2023/03/06 13:10:09;;;;;;;2.20;0.63;;;8.50;99.90;;;;;;4990051;28;20042;-55
2023/03/06 13:13:00;;;;;;;1.50;0.63;;;8.60;99.90;;;;;;4991292;28;20096;-54
2023/03/06 13:15:35;;;;;;;1.63;0.65;;;8.80;99.90;;;;;;4989888;28;20514;-55
2023/03/06 13:18:21;;;;;;;4.50;0.63;;;8.90;99.90;;;;;;4986998;28;20081;-57
2023/03/06 13:20:48;;;;;;;3.05;0.80;;;9.10;99.90;;;;;;4993092;28;20189;-56
2023/03/06 13:23:28;;;;;;;1.23;0.77;;;9.50;99.90;;;;;;4991996;28;20108;-56
2023/03/06 13:25:56;;;;;;;0.98;0.70;;;9.00;99.90;;;;;;4985943;28;20511;-53
2023/03/06 13:28:46;;;;;;;4.63;0.98;;;9.30;99.90;;;;;;4994533;28;20368;-57
2023/03/06 13:31:13;;;;;;;1.67;0.75;;;9.40;99.90;;;;;;4987330;28;20057;-58
2023/03/06 13:33:38;;;;;;;2.85;0.90;;;9.20;99.90;;;;;;4988479;28;20046;-58
2023/03/06 13:36:19;;;;;;;2.67;0.85;;;9.20;99.90;;;;;;4991344;28;20113;-58
2023/03/06 13:38:47;;;;;;;1.83;0.80;;;9.10;99.90;;;;;;4991025;28;20041;-57
2023/03/06 13:41:22;;;;;;;3.75;0.90;;;9.00;99.90;;;;;;4983778;28;20039;-57
2023/03/06 13:43:51;;;;;;;2.72;0.90;;;9.20;99.90;;;;;;4985391;28;20121;-57
2023/03/06 13:46:27;;;;;;;6.15;1.70;;;9.20;99.90;;;;;;4986751;28;20061;-57
2023/03/06 13:49:08;;;;;;;5.75;1.35;;;9.30;99.90;;;;;;4992840;28;20038;-58
2023/03/06 13:51:35;;;;;;;2.28;1.33;;;9.20;99.90;;;;;;4991084;28;20452;-57
2023/03/06 13:54:20;;;;;;;3.38;0.80;;;9.10;99.90;;;;;;4988786;28;20117;-57
2023/03/06 13:56:52;;;;;;;2.15;0.90;;;9.10;99.90;;;;;;4987495;28;20051;-58
2023/03/06 13:59:42;;;;;;;4.95;1.10;;;9.20;99.90;;;;;;4989476;28;20564;-56
2023/03/06 14:02:39;;;;;;;3.90;1.10;;;9.20;99.90;;;;;;4987679;28;21634;-56
2023/03/06 14:05:16;;;;;;;1.37;0.87;;;9.20;99.90;;;;;;4988979;28;20083;-58
2023/03/06 14:07:44;;;;;;;1.50;0.70;;;9.10;99.90;;;;;;4991613;28;20497;-57
2023/03/06 14:10:12;;;;;;;;;;;9.10;99.90;;;;;;4987524;28;20054;-58
2023/03/06 14:12:57;;;;;;;1.20;0.80;;;9.10;99.90;;;;;;4987432;28;20004;-57
2023/03/06 14:15:35;;;;;;;3.50;1.13;;;9.10;99.90;;;;;;4987655;28;20094;-58